createdAt,value
2022-10-20T00:02:16.882Z,19.63
2022-10-20T00:12:07.148Z,18.98
2022-10-20T00:14:52.987Z,21.02
2022-10-20T00:17:38.640Z,20.85
2022-10-20T00:20:24.325Z,21.08
2022-10-20T00:23:42.937Z,20.02
2022-10-20T00:30:32.109Z,19.52
2022-10-20T00:33:47.115Z,20.67
2022-10-20T00:37:10.243Z,21.98
2022-10-20T00:40:40.095Z,21.00
2022-10-20T00:48:28.163Z,22.63
2022-10-20T00:51:26.779Z,22.73
2022-10-20T00:54:46.045Z,22.38
2022-10-20T00:57:42.181Z,22.90
2022-10-20T01:01:19.758Z,23.42
2022-10-20T01:04:05.132Z,24.02
2022-10-20T01:06:51.662Z,23.50
2022-10-20T01:13:56.719Z,22.58
2022-10-20T01:17:13.369Z,22.05
2022-10-20T01:20:08.079Z,23.50
2022-10-20T01:22:53.405Z,24.35
2022-10-20T01:26:18.505Z,23.95
2022-10-20T01:29:19.769Z,22.65
2022-10-20T01:32:26.208Z,22.15
2022-10-20T01:35:21.757Z,22.70
2022-10-20T01:38:28.298Z,23.42
2022-10-20T01:41:32.929Z,22.83
2022-10-20T01:44:20.871Z,23.33
2022-10-20T01:47:06.589Z,23.70
2022-10-20T01:49:52.931Z,21.73
2022-10-20T01:52:38.573Z,23.52
2022-10-20T01:55:24.693Z,22.48
2022-10-20T01:58:16.221Z,21.63
2022-10-20T02:01:17.686Z,23.63
2022-10-20T02:04:04.897Z,21.70
2022-10-20T02:07:05.450Z,22.58
2022-10-20T02:09:58.080Z,23.70
2022-10-20T02:12:50.991Z,22.70
2022-10-20T02:15:46.593Z,22.48
2022-10-20T02:18:36.978Z,22.30
2022-10-20T02:21:50.794Z,21.17
2022-10-20T02:24:40.542Z,23.58
2022-10-20T02:27:35.030Z,23.15
2022-10-20T02:30:21.122Z,21.85
2022-10-20T02:33:12.631Z,22.40
2022-10-20T02:35:59.553Z,22.05
2022-10-20T02:38:49.120Z,21.77
2022-10-20T02:41:34.678Z,22.45
2022-10-20T02:44:19.858Z,22.83
2022-10-20T02:47:05.323Z,23.13
2022-10-20T02:49:53.968Z,22.10
2022-10-20T02:52:40.828Z,22.58
2022-10-20T02:55:26.255Z,22.65
2022-10-20T02:58:12.280Z,23.23
2022-10-20T03:00:58.015Z,23.40
2022-10-20T03:03:43.712Z,23.73
2022-10-20T03:06:29.198Z,23.80
2022-10-20T03:09:14.523Z,23.92
2022-10-20T03:11:59.702Z,24.02
2022-10-20T03:14:50.619Z,23.42
2022-10-20T03:17:43.371Z,23.98
2022-10-20T03:20:29.690Z,24.10
2022-10-20T03:23:23.118Z,24.80
2022-10-20T03:26:11.604Z,24.33
2022-10-20T03:28:56.653Z,22.42
2022-10-20T03:31:41.941Z,23.90
2022-10-20T03:34:27.231Z,25.25
2022-10-20T03:37:15.252Z,23.30
2022-10-20T03:40:01.351Z,25.85
2022-10-20T03:42:46.591Z,25.20
2022-10-20T03:45:31.850Z,25.30
2022-10-20T03:48:17.508Z,25.05
2022-10-20T03:51:28.410Z,24.70
2022-10-20T03:54:15.978Z,26.27
2022-10-20T03:57:02.987Z,27.17
2022-10-20T03:59:50.499Z,24.52
2022-10-20T04:02:46.166Z,26.88
2022-10-20T04:05:32.047Z,26.08
2022-10-20T04:08:17.658Z,26.65
2022-10-20T04:11:05.543Z,24.40
2022-10-20T04:13:51.692Z,24.85
2022-10-20T04:16:36.770Z,26.15
2022-10-20T04:19:25.914Z,25.63
2022-10-20T04:22:12.452Z,26.70
2022-10-20T04:24:58.215Z,25.63
2022-10-20T04:27:43.772Z,25.60
2022-10-20T04:30:29.021Z,25.33
2022-10-20T04:33:19.581Z,24.15
2022-10-20T04:36:07.765Z,25.38
2022-10-20T04:38:52.936Z,26.08
2022-10-20T04:41:38.481Z,27.08
2022-10-20T04:44:23.891Z,23.75
2022-10-20T04:47:09.654Z,25.00
2022-10-20T04:49:54.997Z,23.90
2022-10-20T04:52:40.451Z,24.45
2022-10-20T04:55:41.386Z,28.08
2022-10-20T04:58:38.008Z,25.60
2022-10-20T05:01:28.214Z,24.77
2022-10-20T05:04:21.219Z,26.17
2022-10-20T05:07:06.491Z,24.58
2022-10-20T05:09:52.348Z,26.40
2022-10-20T05:12:47.058Z,25.05
2022-10-20T05:15:35.002Z,25.60
2022-10-20T05:18:29.223Z,24.75
2022-10-20T05:21:17.245Z,26.70
2022-10-20T05:24:04.801Z,27.13
2022-10-20T05:26:50.079Z,25.35
2022-10-20T05:29:35.510Z,24.55
2022-10-20T05:32:20.867Z,26.98
2022-10-20T05:35:06.791Z,27.27
2022-10-20T05:37:52.307Z,27.70
2022-10-20T05:40:37.786Z,26.83
2022-10-20T05:43:23.550Z,27.30
2022-10-20T05:46:09.664Z,25.90
2022-10-20T05:48:57.139Z,26.85
2022-10-20T05:51:42.990Z,26.02
2022-10-20T05:54:28.393Z,27.15
2022-10-20T05:57:14.002Z,26.38
2022-10-20T05:59:59.491Z,27.45
2022-10-20T06:02:45.349Z,25.67
2022-10-20T06:05:30.907Z,28.98
2022-10-20T06:08:16.441Z,27.40
2022-10-20T06:11:09.976Z,28.20
2022-10-20T06:13:56.781Z,27.75
2022-10-20T06:16:42.329Z,26.77
2022-10-20T06:19:28.770Z,28.00
2022-10-20T06:22:14.431Z,28.08
2022-10-20T06:24:59.838Z,27.15
2022-10-20T06:27:45.249Z,27.95
2022-10-20T06:30:31.014Z,28.83
2022-10-20T06:33:16.962Z,26.80
2022-10-20T06:36:02.474Z,27.58
2022-10-20T06:38:48.734Z,26.42
2022-10-20T06:41:34.897Z,27.35
2022-10-20T06:44:24.711Z,28.27
2022-10-20T06:47:10.418Z,27.55
2022-10-20T06:49:55.663Z,28.08
2022-10-20T06:52:41.397Z,27.17
2022-10-20T06:55:26.846Z,25.92
2022-10-20T06:58:12.379Z,25.67
2022-10-20T07:01:14.741Z,27.80
2022-10-20T07:04:05.871Z,25.55
2022-10-20T07:06:51.108Z,28.38
2022-10-20T07:09:36.700Z,28.42
2022-10-20T07:12:22.083Z,24.95
2022-10-20T07:15:07.922Z,24.55
2022-10-20T07:17:53.411Z,21.75
2022-10-20T07:20:38.757Z,21.77
2022-10-20T07:23:24.620Z,19.92
2022-10-20T07:26:22.668Z,19.77
2022-10-20T07:29:08.841Z,18.48
2022-10-20T07:31:55.992Z,19.48
2022-10-20T07:34:43.198Z,20.33
2022-10-20T07:37:29.251Z,18.05
2022-10-20T07:40:14.831Z,20.00
2022-10-20T07:43:00.212Z,20.38
2022-10-20T08:26:30.723Z,16.20
2022-10-20T08:29:15.826Z,17.17
2022-10-20T08:32:01.339Z,16.60
2022-10-20T08:34:47.050Z,17.02
2022-10-20T08:37:33.053Z,17.40
2022-10-20T08:40:23.436Z,16.95
2022-10-20T08:43:17.867Z,15.13
2022-10-20T08:46:04.431Z,16.70
2022-10-20T08:48:50.370Z,15.88
2022-10-20T08:51:38.441Z,15.20
2022-10-20T08:54:24.971Z,14.13
2022-10-20T08:57:26.064Z,13.40
2022-10-20T09:00:19.115Z,15.38
2022-10-20T09:03:19.159Z,13.18
2022-10-20T09:06:16.448Z,15.77
2022-10-20T09:09:02.206Z,14.13
2022-10-20T09:11:48.835Z,13.30
2022-10-20T09:14:37.086Z,12.60
2022-10-20T09:17:22.466Z,13.52
2022-10-20T09:20:19.988Z,13.20
2022-10-20T09:23:16.667Z,14.30
2022-10-20T09:26:37.396Z,13.25
2022-10-20T09:29:37.215Z,13.32
2022-10-20T09:32:45.991Z,13.27
2022-10-20T09:35:38.254Z,9.68
2022-10-20T09:38:29.519Z,11.38
2022-10-20T09:41:21.825Z,9.75
2022-10-20T09:44:23.514Z,9.80
2022-10-20T09:47:14.726Z,9.52
2022-10-20T09:50:08.248Z,9.48
2022-10-20T09:52:54.596Z,8.13
2022-10-20T09:55:49.423Z,7.32
2022-10-20T09:58:42.658Z,7.82
2022-10-20T10:01:28.654Z,7.72
2022-10-20T10:04:33.280Z,8.02
2022-10-20T10:07:28.210Z,7.60
2022-10-20T10:10:19.598Z,8.00
2022-10-20T10:16:15.255Z,7.57
2022-10-20T10:19:03.180Z,7.22
2022-10-20T10:22:01.794Z,6.38
2022-10-20T10:24:49.348Z,6.57
2022-10-20T10:27:36.471Z,8.43
2022-10-20T10:30:27.717Z,8.18
2022-10-20T10:33:39.529Z,7.40
2022-10-20T10:36:36.592Z,6.25
2022-10-20T10:39:21.913Z,6.82
2022-10-20T10:42:07.455Z,7.38
2022-10-20T10:45:11.782Z,8.40
2022-10-20T10:47:59.922Z,7.45
2022-10-20T10:51:07.606Z,6.68
2022-10-20T10:54:12.103Z,7.00
2022-10-20T10:57:07.982Z,4.95
2022-10-20T10:59:59.534Z,5.55
2022-10-20T11:03:18.866Z,5.32
2022-10-20T11:06:18.858Z,5.90
2022-10-20T11:09:17.016Z,4.82
2022-10-20T11:12:21.102Z,4.95
2022-10-20T11:15:24.426Z,3.72
2022-10-20T11:21:12.954Z,4.85
2022-10-20T11:24:13.046Z,4.13
2022-10-20T11:27:18.147Z,5.30
2022-10-20T11:30:15.289Z,4.55
2022-10-20T11:33:18.603Z,5.30
2022-10-20T11:38:55.804Z,4.53
2022-10-20T11:41:50.171Z,5.25
2022-10-20T11:44:41.664Z,4.80
2022-10-20T11:47:41.370Z,5.10
2022-10-20T11:50:27.124Z,5.10
2022-10-20T11:53:35.739Z,5.57
2022-10-20T11:56:34.156Z,5.10
2022-10-20T11:59:25.360Z,7.30
2022-10-20T12:02:32.692Z,5.38
2022-10-20T12:05:33.507Z,4.95
2022-10-20T12:08:29.816Z,5.65
2022-10-20T12:11:16.297Z,6.30
2022-10-20T12:14:08.090Z,6.35
2022-10-20T12:16:55.897Z,4.68
2022-10-20T12:19:41.007Z,5.47
2022-10-20T12:22:26.618Z,3.15
2022-10-20T12:25:22.091Z,2.90
2022-10-20T12:28:20.054Z,2.17
2022-10-20T12:31:05.958Z,1.90
2022-10-20T12:33:54.525Z,1.90
2022-10-20T12:36:40.075Z,1.80
2022-10-20T12:39:29.619Z,2.22
2022-10-20T12:42:29.973Z,1.88
2022-10-20T12:45:18.497Z,1.75
2022-10-20T12:48:06.527Z,1.75
2022-10-20T12:50:53.172Z,1.80
2022-10-20T12:53:38.469Z,1.48
2022-10-20T12:56:32.163Z,1.48
2022-10-20T12:59:22.437Z,1.83
2022-10-20T13:02:11.514Z,1.70
2022-10-20T13:04:57.937Z,2.55
2022-10-20T13:07:46.512Z,2.30
2022-10-20T13:10:36.484Z,1.95
2022-10-20T13:13:21.762Z,1.60
2022-10-20T13:16:16.622Z,2.47
2022-10-20T13:19:06.152Z,2.33
2022-10-20T13:21:52.063Z,2.20
2022-10-20T13:24:42.693Z,2.50
2022-10-20T13:27:30.705Z,3.83
2022-10-20T13:30:22.522Z,2.15
2022-10-20T13:34:02.082Z,1.92
2022-10-20T13:36:56.188Z,1.73
2022-10-20T13:40:00.576Z,1.83
2022-10-20T13:43:04.484Z,2.20
2022-10-20T13:45:49.726Z,1.67
2022-10-20T13:48:50.260Z,1.35
2022-10-20T13:51:47.971Z,2.13
2022-10-20T13:54:37.609Z,1.30
2022-10-20T13:57:31.723Z,1.50
2022-10-20T14:00:22.192Z,1.10
2022-10-20T14:03:17.638Z,1.15
2022-10-20T14:06:02.999Z,1.38
2022-10-20T14:08:48.460Z,1.08
2022-10-20T14:11:34.236Z,0.95
2022-10-20T14:14:23.666Z,1.13
2022-10-20T14:17:17.598Z,1.58
2022-10-20T14:20:19.375Z,1.48
2022-10-20T14:23:06.531Z,1.00
2022-10-20T14:25:53.808Z,1.33
2022-10-20T14:28:40.055Z,1.00
2022-10-20T14:31:25.651Z,0.98
2022-10-20T14:34:20.137Z,2.03
2022-10-20T14:37:08.690Z,1.60
2022-10-20T14:39:54.169Z,0.93
2022-10-20T14:42:45.423Z,1.20
2022-10-20T14:48:21.814Z,1.40
2022-10-20T14:51:30.460Z,1.40
2022-10-20T14:54:26.420Z,1.20
2022-10-20T14:57:17.652Z,1.25
2022-10-20T15:00:27.731Z,1.35
2022-10-20T15:03:13.198Z,1.30
2022-10-20T15:06:03.806Z,1.45
2022-10-20T15:08:54.833Z,1.23
2022-10-20T15:11:40.413Z,1.08
2022-10-20T15:14:25.990Z,1.65
2022-10-20T15:17:36.591Z,1.38
2022-10-20T15:20:34.542Z,1.80
2022-10-20T15:23:28.158Z,1.13
2022-10-20T15:26:14.896Z,1.70
2022-10-20T15:29:00.023Z,1.25
2022-10-20T15:31:45.477Z,1.30
2022-10-20T15:34:30.927Z,1.35
2022-10-20T15:37:17.306Z,1.48
2022-10-20T15:40:03.049Z,1.25
2022-10-20T15:42:48.866Z,1.50
2022-10-20T15:45:45.352Z,1.52
2022-10-20T15:48:30.830Z,1.45
2022-10-20T15:51:27.694Z,1.50
2022-10-20T15:54:19.231Z,1.33
2022-10-20T15:57:04.650Z,1.85
2022-10-20T15:59:50.047Z,1.85
2022-10-20T16:02:35.948Z,1.35
2022-10-20T16:05:23.758Z,1.60
2022-10-20T16:08:10.485Z,2.00
2022-10-20T16:10:56.233Z,1.67
2022-10-20T16:13:41.806Z,1.77
2022-10-20T16:16:27.067Z,2.15
2022-10-20T16:19:12.694Z,1.90
2022-10-20T16:21:58.063Z,1.63
2022-10-20T16:24:51.169Z,1.30
2022-10-20T16:30:37.053Z,1.85
2022-10-20T16:33:37.395Z,1.45
2022-10-20T16:36:36.691Z,1.65
2022-10-20T16:39:22.149Z,1.75
2022-10-20T16:42:07.667Z,2.00
2022-10-20T16:44:53.230Z,1.42
2022-10-20T16:47:39.346Z,1.38
2022-10-20T16:50:25.392Z,2.10
2022-10-20T16:53:11.331Z,1.33
2022-10-20T16:55:57.365Z,1.75
2022-10-20T16:58:42.930Z,1.30
2022-10-20T17:01:28.656Z,2.03
2022-10-20T17:04:14.030Z,1.45
2022-10-20T17:06:59.689Z,2.33
2022-10-20T17:09:45.625Z,1.80
2022-10-20T17:12:31.349Z,1.83
2022-10-20T17:15:16.801Z,1.38
2022-10-20T17:18:02.413Z,2.03
2022-10-20T17:20:53.742Z,1.58
2022-10-20T17:23:42.719Z,1.60
2022-10-20T17:26:33.002Z,1.58
2022-10-20T17:29:22.331Z,1.48
2022-10-20T17:32:18.129Z,1.90
2022-10-20T17:35:04.214Z,1.55
2022-10-20T17:37:49.510Z,2.05
2022-10-20T17:40:38.729Z,2.00
2022-10-20T17:43:24.053Z,1.55
2022-10-20T17:46:15.224Z,1.65
2022-10-20T17:49:04.058Z,2.20
2022-10-20T17:51:49.352Z,2.13
2022-10-20T17:54:34.771Z,1.80
2022-10-20T17:57:20.374Z,1.83
2022-10-20T18:00:11.047Z,1.80
2022-10-20T18:02:59.814Z,2.40
2022-10-20T18:05:47.884Z,2.40
2022-10-20T18:08:33.218Z,1.60
2022-10-20T18:11:21.740Z,2.53
2022-10-20T18:14:07.219Z,3.10
2022-10-20T18:16:52.556Z,2.30
2022-10-20T18:19:37.945Z,3.20
2022-10-20T18:22:23.735Z,3.40
2022-10-20T18:25:09.693Z,2.63
2022-10-20T18:27:58.221Z,2.85
2022-10-20T18:30:44.578Z,3.30
2022-10-20T18:33:29.987Z,3.13
2022-10-20T18:36:18.184Z,3.40
2022-10-20T18:39:05.239Z,4.50
2022-10-20T18:41:52.491Z,6.50
2022-10-20T18:44:38.160Z,4.53
2022-10-20T18:47:23.734Z,3.20
2022-10-20T18:50:09.647Z,3.25
2022-10-20T18:52:55.370Z,3.47
2022-10-20T18:55:40.831Z,3.17
2022-10-20T18:58:27.820Z,2.70
2022-10-20T19:01:16.736Z,3.13
2022-10-20T19:04:03.323Z,3.35
2022-10-20T19:06:49.078Z,3.65
2022-10-20T19:09:34.221Z,3.47
2022-10-20T19:12:19.850Z,3.67
2022-10-20T19:15:05.744Z,3.92
2022-10-20T19:17:51.330Z,6.10
2022-10-20T19:20:36.741Z,5.57
2022-10-20T19:23:22.586Z,6.38
2022-10-20T19:26:12.099Z,5.20
2022-10-20T19:29:00.230Z,5.10
2022-10-20T19:31:55.182Z,4.50
2022-10-20T19:34:41.355Z,4.85
2022-10-20T19:37:26.683Z,4.50
2022-10-20T19:40:12.355Z,4.63
2022-10-20T19:42:57.527Z,4.90
2022-10-20T19:45:47.687Z,4.20
2022-10-20T19:48:35.669Z,4.00
2022-10-20T19:51:21.444Z,4.93
2022-10-20T19:54:07.622Z,4.28
2022-10-20T19:56:52.886Z,4.22
2022-10-20T19:59:38.652Z,4.15
2022-10-20T20:02:24.344Z,4.50
2022-10-20T20:05:10.425Z,4.30
2022-10-20T20:07:55.856Z,5.40
2022-10-20T20:10:41.423Z,4.32
2022-10-20T20:13:27.213Z,5.10
2022-10-20T20:16:12.959Z,4.63
2022-10-20T20:18:59.085Z,4.90
2022-10-20T20:21:46.012Z,4.80
2022-10-20T20:24:32.024Z,4.78
2022-10-20T20:27:17.496Z,4.82
2022-10-20T20:30:03.478Z,4.05
2022-10-20T20:32:52.094Z,6.05
2022-10-20T20:35:39.855Z,4.90
2022-10-20T20:38:25.632Z,4.65
2022-10-20T20:41:14.199Z,4.78
2022-10-20T20:44:04.152Z,4.10
2022-10-20T20:46:52.694Z,3.90
2022-10-20T20:49:38.204Z,3.80
2022-10-20T20:52:23.837Z,5.05
2022-10-20T20:55:09.555Z,5.70
2022-10-20T20:57:54.998Z,5.68
2022-10-20T21:00:40.543Z,4.65
2022-10-20T21:03:25.897Z,5.07
2022-10-20T21:06:14.155Z,6.22
2022-10-20T21:09:02.827Z,5.68
2022-10-20T21:11:49.260Z,5.65
2022-10-20T21:14:35.212Z,5.78
2022-10-20T21:17:21.524Z,5.25
2022-10-20T21:20:08.591Z,4.85
2022-10-20T21:22:54.633Z,6.40
2022-10-20T21:25:46.531Z,6.38
2022-10-20T21:28:35.004Z,4.45
2022-10-20T21:31:25.305Z,4.80
2022-10-20T21:34:12.360Z,4.57
2022-10-20T21:36:58.681Z,5.00
2022-10-20T21:39:44.104Z,4.78
2022-10-20T21:42:29.966Z,6.00
2022-10-20T21:45:18.316Z,5.20
2022-10-20T21:48:05.193Z,5.05
2022-10-20T21:50:51.438Z,3.97
2022-10-20T21:53:37.563Z,5.47
2022-10-20T21:56:23.236Z,5.40
2022-10-20T21:59:24.122Z,6.18
2022-10-20T22:02:13.698Z,5.18
2022-10-20T22:04:59.281Z,5.85
2022-10-20T22:07:44.851Z,5.90
2022-10-20T22:10:30.254Z,7.32
2022-10-20T22:13:16.065Z,6.97
2022-10-20T22:16:01.876Z,7.43
2022-10-20T22:18:47.203Z,6.07
2022-10-20T22:21:36.960Z,6.60
2022-10-20T22:24:23.621Z,6.00
2022-10-20T22:27:15.583Z,6.22
2022-10-20T22:30:11.166Z,5.78
2022-10-20T22:32:56.709Z,5.63
2022-10-20T22:35:42.755Z,6.65
2022-10-20T22:38:27.982Z,5.00
2022-10-20T22:41:13.913Z,5.38
2022-10-20T22:43:59.582Z,5.90
2022-10-20T22:46:45.062Z,6.90
2022-10-20T22:49:30.367Z,7.20
2022-10-20T22:52:15.756Z,6.20
2022-10-20T22:55:01.569Z,5.88
2022-10-20T22:57:51.553Z,5.57
2022-10-20T23:00:40.093Z,6.05
2022-10-20T23:03:25.360Z,6.00
2022-10-20T23:06:17.140Z,5.22
2022-10-20T23:09:02.983Z,5.72
2022-10-20T23:11:48.742Z,4.45
2022-10-20T23:14:34.444Z,4.80
2022-10-20T23:17:20.118Z,4.22
2022-10-20T23:20:06.336Z,4.07
2022-10-20T23:22:52.048Z,4.20
2022-10-20T23:25:41.538Z,4.43
2022-10-20T23:28:26.990Z,5.32
2022-10-20T23:31:20.527Z,5.32
2022-10-20T23:34:06.251Z,5.13
2022-10-20T23:36:51.973Z,5.18
2022-10-20T23:39:37.154Z,6.40
2022-10-20T23:42:22.844Z,5.50
2022-10-20T23:45:08.763Z,5.53
2022-10-20T23:47:54.166Z,6.07
2022-10-20T23:50:39.930Z,5.85
2022-10-20T23:53:25.234Z,5.75
2022-10-20T23:56:10.504Z,5.80
